createdAt,value
2017-12-11T00:01:25.749Z,10.70
2017-12-11T00:03:54.753Z,10.40
2017-12-11T00:06:23.861Z,10.07
2017-12-11T00:08:52.843Z,9.57
2017-12-11T00:11:21.812Z,12.17
2017-12-11T00:13:51.556Z,9.73
2017-12-11T00:16:20.503Z,11.00
2017-12-11T00:18:49.511Z,11.30
2017-12-11T00:21:18.504Z,12.90
2017-12-11T00:23:47.506Z,13.10
2017-12-11T00:26:16.891Z,12.90
2017-12-11T00:28:46.702Z,10.37
2017-12-11T00:31:15.910Z,10.43
2017-12-11T00:33:45.290Z,12.90
2017-12-11T00:36:14.294Z,10.77
2017-12-11T00:38:43.282Z,10.60
2017-12-11T00:41:12.261Z,14.70
2017-12-11T00:43:41.641Z,13.80
2017-12-11T00:46:10.618Z,14.53
2017-12-11T00:48:40.394Z,13.80
2017-12-11T00:51:09.372Z,15.57
2017-12-11T00:53:38.759Z,12.23
2017-12-11T00:56:08.534Z,15.43
2017-12-11T00:58:37.544Z,18.90
2017-12-11T01:01:07.309Z,16.80
2017-12-11T01:03:36.675Z,19.07
2017-12-11T01:06:05.657Z,17.50
2017-12-11T01:08:35.403Z,12.07
2017-12-11T01:11:04.883Z,14.77
2017-12-11T01:13:34.629Z,14.00
2017-12-11T01:16:04.066Z,15.20
2017-12-11T01:18:33.439Z,11.40
2017-12-11T01:21:02.813Z,12.23
2017-12-11T01:23:31.819Z,15.37
2017-12-11T01:26:01.628Z,14.57
2017-12-11T01:28:30.610Z,11.10
2017-12-11T01:30:59.621Z,13.83
2017-12-11T01:33:28.587Z,14.00
2017-12-11T01:35:57.581Z,11.97
2017-12-11T01:38:26.636Z,11.43
2017-12-11T01:40:55.626Z,13.77
2017-12-11T01:43:24.612Z,18.50
2017-12-11T01:45:53.995Z,14.50
2017-12-11T01:48:23.764Z,12.50
2017-12-11T01:50:53.533Z,10.50
2017-12-11T01:53:22.514Z,11.00
2017-12-11T01:55:51.484Z,10.23
2017-12-11T01:58:20.439Z,9.93
2017-12-11T02:00:49.447Z,10.07
2017-12-11T02:03:18.424Z,10.60
2017-12-11T02:05:47.385Z,15.63
2017-12-11T02:08:16.483Z,13.63
2017-12-11T02:10:45.498Z,11.13
2017-12-11T02:13:14.879Z,10.77
2017-12-11T02:15:43.880Z,10.10
2017-12-11T02:18:12.845Z,11.53
2017-12-11T02:20:41.814Z,13.30
2017-12-11T02:23:11.567Z,11.73
2017-12-11T02:25:40.539Z,10.70
2017-12-11T02:28:09.511Z,16.40
2017-12-11T02:30:38.499Z,11.90
2017-12-11T02:33:07.477Z,9.33
2017-12-11T02:35:36.861Z,11.60
2017-12-11T02:38:06.593Z,16.83
2017-12-11T02:40:35.588Z,11.10
2017-12-11T02:43:04.551Z,13.90
2017-12-11T02:45:33.919Z,11.13
2017-12-11T02:48:03.648Z,10.93
2017-12-11T02:50:32.650Z,12.73
2017-12-11T02:53:02.361Z,16.83
2017-12-11T02:55:32.131Z,11.60
2017-12-11T02:58:01.112Z,13.30
2017-12-11T03:00:30.484Z,9.37
2017-12-11T03:02:59.483Z,12.73
2017-12-11T03:05:28.474Z,13.70
2017-12-11T03:07:58.326Z,14.97
2017-12-11T03:10:27.332Z,10.80
2017-12-11T03:12:56.730Z,15.80
2017-12-11T03:15:26.531Z,16.10
2017-12-11T03:17:55.588Z,13.50
2017-12-11T03:20:24.983Z,10.43
2017-12-11T03:22:54.340Z,8.60
2017-12-11T03:25:23.333Z,8.70
2017-12-11T03:27:52.683Z,8.90
2017-12-11T03:30:21.732Z,9.33
2017-12-11T03:32:51.493Z,10.07
2017-12-11T03:35:20.456Z,8.70
2017-12-11T03:37:50.236Z,9.10
2017-12-11T03:40:19.194Z,11.47
2017-12-11T03:42:48.193Z,10.37
2017-12-11T03:45:17.189Z,9.20
2017-12-11T03:47:46.552Z,9.83
2017-12-11T03:50:16.319Z,10.90
2017-12-11T03:52:45.721Z,10.00
2017-12-11T03:55:15.498Z,12.10
2017-12-11T03:57:44.469Z,12.03
2017-12-11T04:00:14.249Z,10.20
2017-12-11T04:02:43.221Z,13.73
2017-12-11T04:05:12.212Z,11.00
2017-12-11T04:07:41.972Z,11.30
2017-12-11T04:10:11.336Z,14.20
2017-12-11T04:12:40.351Z,13.80
2017-12-11T04:15:09.755Z,13.60
2017-12-11T04:17:39.513Z,12.03
2017-12-11T04:20:08.505Z,13.50
2017-12-11T04:22:37.497Z,14.00
2017-12-11T04:25:06.533Z,12.80
2017-12-11T04:27:35.567Z,15.90
2017-12-11T04:30:05.292Z,17.47
2017-12-11T04:32:34.728Z,13.30
2017-12-11T04:35:03.714Z,14.63
2017-12-11T04:37:32.683Z,14.33
2017-12-11T04:40:01.771Z,11.67
2017-12-11T04:42:30.768Z,19.37
2017-12-11T04:44:59.748Z,14.73
2017-12-11T04:47:28.753Z,15.03
2017-12-11T04:49:57.869Z,14.90
2017-12-11T04:52:27.618Z,17.43
2017-12-11T04:54:57.396Z,14.00
2017-12-11T04:57:26.392Z,14.80
2017-12-11T04:59:55.763Z,15.77
2017-12-11T05:02:25.541Z,17.83
2017-12-11T05:04:55.290Z,15.33
2017-12-11T05:07:24.278Z,14.57
2017-12-11T05:09:53.291Z,14.83
2017-12-11T05:12:22.349Z,15.73
2017-12-11T05:14:51.340Z,14.37
2017-12-11T05:17:20.708Z,13.13
2017-12-11T05:19:50.496Z,18.60
2017-12-11T05:22:19.500Z,15.67
2017-12-11T05:24:48.524Z,16.07
2017-12-11T05:27:17.541Z,14.70
2017-12-11T05:29:46.906Z,15.80
2017-12-11T05:32:16.715Z,15.00
2017-12-11T05:34:45.707Z,13.20
2017-12-11T05:37:14.714Z,14.63
2017-12-11T05:39:43.737Z,13.57
2017-12-11T05:42:12.731Z,13.03
2017-12-11T05:44:41.691Z,13.53
2017-12-11T05:47:12.096Z,15.93
2017-12-11T05:49:41.587Z,14.40
2017-12-11T05:52:10.567Z,17.07
2017-12-11T05:54:39.612Z,16.02
2017-12-11T05:57:09.434Z,13.83
2017-12-11T05:59:38.903Z,15.40
2017-12-11T06:02:07.981Z,12.37
2017-12-11T06:04:37.743Z,12.73
2017-12-11T06:07:06.763Z,17.23
2017-12-11T06:09:36.465Z,18.62
2017-12-11T06:12:05.455Z,17.23
2017-12-11T06:14:34.487Z,14.90
2017-12-11T06:17:03.885Z,17.20
2017-12-11T06:19:33.644Z,16.50
2017-12-11T06:22:02.631Z,12.87
2017-12-11T06:24:32.404Z,15.73
2017-12-11T06:27:01.788Z,11.70
2017-12-11T06:29:30.793Z,14.57
2017-12-11T06:31:59.806Z,15.63
2017-12-11T06:34:29.550Z,13.30
2017-12-11T06:36:58.571Z,12.07
2017-12-11T06:39:27.557Z,11.73
2017-12-11T06:41:56.552Z,9.50
2017-12-11T06:44:25.969Z,11.97
2017-12-11T06:46:54.967Z,12.47
2017-12-11T06:49:23.993Z,12.13
2017-12-11T06:51:53.722Z,12.07
2017-12-11T06:54:22.770Z,12.50
2017-12-11T06:56:51.824Z,12.70
2017-12-11T06:59:21.602Z,13.93
2017-12-11T07:01:50.597Z,12.27
2017-12-11T07:04:19.572Z,10.50
2017-12-11T07:06:49.349Z,10.43
2017-12-11T07:09:18.331Z,10.13
2017-12-11T07:11:47.722Z,10.07
2017-12-11T07:14:17.117Z,11.27
2017-12-11T07:16:46.504Z,9.27
2017-12-11T07:19:15.864Z,15.60
2017-12-11T07:21:44.887Z,11.03
2017-12-11T07:24:14.605Z,14.50
2017-12-11T07:26:44.343Z,10.60
2017-12-11T07:29:14.710Z,13.17
2017-12-11T07:31:44.493Z,13.93
2017-12-11T07:34:13.735Z,11.80
2017-12-11T07:36:43.161Z,13.30
2017-12-11T07:39:13.094Z,11.83
2017-12-11T07:41:42.469Z,12.50
2017-12-11T07:44:12.710Z,12.27
2017-12-11T07:46:42.780Z,11.60
2017-12-11T07:49:12.398Z,15.80
2017-12-11T07:51:43.668Z,14.70
2017-12-11T07:54:13.361Z,15.63
2017-12-11T07:56:42.394Z,13.50
2017-12-11T07:59:12.232Z,15.00
2017-12-11T08:01:43.269Z,11.77
2017-12-11T08:04:13.571Z,15.17
2017-12-11T08:06:42.674Z,12.70
2017-12-11T08:09:11.681Z,11.10
2017-12-11T08:11:41.468Z,15.63
2017-12-11T08:14:11.886Z,12.40
2017-12-11T08:16:42.079Z,13.53
2017-12-11T08:19:11.165Z,14.60
2017-12-11T08:21:42.101Z,10.93
2017-12-11T08:24:12.242Z,13.23
2017-12-11T08:26:41.525Z,14.20
2017-12-11T08:29:11.327Z,14.40
2017-12-11T08:31:40.571Z,16.53
2017-12-11T08:34:10.472Z,13.83
2017-12-11T08:36:39.597Z,13.53
2017-12-11T08:39:08.801Z,14.50
2017-12-11T08:41:37.817Z,13.20
2017-12-11T08:44:07.971Z,16.50
2017-12-11T08:46:38.307Z,16.73
2017-12-11T08:49:07.770Z,17.83
2017-12-11T08:51:39.542Z,35.43
2017-12-11T08:54:09.397Z,24.97
2017-12-11T08:56:38.422Z,25.37
2017-12-11T08:59:07.862Z,18.53
2017-12-11T09:01:37.695Z,24.90
2017-12-11T09:04:08.118Z,15.77
2017-12-11T09:06:37.357Z,15.27
2017-12-11T09:09:06.766Z,14.77
2017-12-11T09:11:35.782Z,16.87
2017-12-11T09:14:05.535Z,19.27
2017-12-11T09:16:34.517Z,22.10
2017-12-11T09:19:03.526Z,19.90
2017-12-11T09:21:32.498Z,17.67
2017-12-11T09:24:02.231Z,20.93
2017-12-11T09:26:32.041Z,18.47
2017-12-11T09:29:01.834Z,16.20
2017-12-11T09:31:31.219Z,16.60
2017-12-11T09:34:00.598Z,16.13
2017-12-11T09:36:30.415Z,17.37
2017-12-11T09:39:00.279Z,15.53
2017-12-11T09:41:30.140Z,17.97
2017-12-11T09:44:00.188Z,14.93
2017-12-11T09:46:30.497Z,16.50
2017-12-11T09:48:59.562Z,18.87
2017-12-11T09:51:29.114Z,18.17
2017-12-11T09:53:58.791Z,17.50
2017-12-11T09:56:27.995Z,19.47
2017-12-11T09:58:57.012Z,16.80
2017-12-11T10:01:26.119Z,16.17
2017-12-11T10:03:55.554Z,16.80
2017-12-11T10:06:24.707Z,17.73
2017-12-11T10:08:53.716Z,17.00
2017-12-11T10:11:22.838Z,19.10
2017-12-11T10:13:54.472Z,16.53
2017-12-11T10:16:26.483Z,13.57
2017-12-11T10:18:55.542Z,14.90
2017-12-11T10:21:24.606Z,18.70
2017-12-11T10:23:54.339Z,17.00
2017-12-11T10:26:24.036Z,17.47
2017-12-11T10:28:53.994Z,24.80
2017-12-11T10:31:23.064Z,21.43
2017-12-11T10:33:54.051Z,17.50
2017-12-11T10:36:23.756Z,19.67
2017-12-11T10:38:53.613Z,21.90
2017-12-11T10:41:23.807Z,18.97
2017-12-11T10:43:53.329Z,20.80
2017-12-11T10:46:23.192Z,17.53
2017-12-11T10:48:52.546Z,20.30
2017-12-11T10:51:21.810Z,16.90
2017-12-11T10:53:52.638Z,17.33
2017-12-11T10:56:22.473Z,19.90
2017-12-11T10:58:51.546Z,15.07
2017-12-11T11:01:20.684Z,14.87
2017-12-11T11:03:50.480Z,18.03
2017-12-11T11:06:20.394Z,16.40
2017-12-11T11:08:49.624Z,14.47
2017-12-11T11:11:18.642Z,15.90
2017-12-11T11:13:47.823Z,15.13
2017-12-11T11:16:17.719Z,17.73
2017-12-11T11:18:48.386Z,15.50
2017-12-11T11:21:17.521Z,16.40
2017-12-11T11:23:47.318Z,15.07
2017-12-11T11:26:17.015Z,14.67
2017-12-11T11:28:47.292Z,15.17
2017-12-11T11:31:17.512Z,37.63
2017-12-11T11:33:48.022Z,46.23
2017-12-11T11:36:17.877Z,43.10
2017-12-11T11:38:47.557Z,22.97
2017-12-11T11:41:16.583Z,26.30
2017-12-11T11:43:46.516Z,25.57
2017-12-11T11:46:16.426Z,27.60
2017-12-11T11:48:45.999Z,32.40
2017-12-11T11:51:15.859Z,17.20
2017-12-11T11:53:45.581Z,17.87
2017-12-11T11:56:14.677Z,16.53
2017-12-11T11:58:44.413Z,14.83
2017-12-11T12:01:13.455Z,16.83
2017-12-11T12:03:43.225Z,18.53
2017-12-11T12:06:12.271Z,16.33
2017-12-11T12:08:42.629Z,18.23
2017-12-11T12:11:13.299Z,20.97
2017-12-11T12:13:42.315Z,23.03
2017-12-11T12:16:11.793Z,21.63
2017-12-11T12:18:41.731Z,16.90
2017-12-11T12:21:12.110Z,17.47
2017-12-11T12:23:42.421Z,19.47
2017-12-11T12:26:14.118Z,17.87
2017-12-11T12:28:43.673Z,19.80
2017-12-11T12:31:13.151Z,17.90
2017-12-11T12:33:42.648Z,19.03
2017-12-11T12:36:12.157Z,19.70
2017-12-11T12:38:42.570Z,17.60
2017-12-11T12:41:11.663Z,17.43
2017-12-11T12:43:41.721Z,19.77
2017-12-11T12:46:11.816Z,22.53
2017-12-11T12:48:41.668Z,16.90
2017-12-11T12:51:10.776Z,17.80
2017-12-11T12:53:39.854Z,17.67
2017-12-11T12:56:08.904Z,19.90
2017-12-11T12:58:38.438Z,16.43
2017-12-11T13:01:08.463Z,19.73
2017-12-11T13:03:37.684Z,22.10
2017-12-11T13:06:07.774Z,18.80
2017-12-11T13:08:37.566Z,20.13
2017-12-11T13:11:07.312Z,20.17
2017-12-11T13:13:36.295Z,24.33
2017-12-11T13:16:05.704Z,22.50
2017-12-11T13:18:34.694Z,23.27
2017-12-11T13:21:03.677Z,27.70
2017-12-11T13:23:33.076Z,25.50
2017-12-11T13:26:02.865Z,23.30
2017-12-11T13:28:32.642Z,26.23
2017-12-11T13:31:02.121Z,21.93
2017-12-11T13:33:31.985Z,20.67
2017-12-11T13:36:01.738Z,20.60
2017-12-11T13:38:30.737Z,23.03
2017-12-11T13:41:00.503Z,20.77
2017-12-11T13:43:29.498Z,26.73
2017-12-11T13:45:58.525Z,21.40
2017-12-11T13:48:27.895Z,21.33
2017-12-11T13:50:57.429Z,21.10
2017-12-11T13:53:26.456Z,22.37
2017-12-11T13:55:57.986Z,21.83
2017-12-11T13:58:27.397Z,24.50
2017-12-11T14:00:56.792Z,26.17
2017-12-11T14:03:26.680Z,23.13
2017-12-11T14:05:55.721Z,24.53
2017-12-11T14:08:25.556Z,20.57
2017-12-11T14:10:55.302Z,23.40
2017-12-11T14:13:25.096Z,26.23
2017-12-11T14:15:54.115Z,20.40
2017-12-11T14:18:23.513Z,23.73
2017-12-11T14:20:52.938Z,26.03
2017-12-11T14:23:21.926Z,28.23
2017-12-11T14:25:50.952Z,22.93
2017-12-11T14:28:20.341Z,26.57
2017-12-11T14:30:50.117Z,24.17
2017-12-11T14:33:19.147Z,23.63
2017-12-11T14:35:48.230Z,28.20
2017-12-11T14:38:17.241Z,27.00
2017-12-11T14:40:47.007Z,23.07
2017-12-11T14:43:16.767Z,22.73
2017-12-11T14:45:45.761Z,27.30
2017-12-11T14:48:15.547Z,29.13
2017-12-11T14:50:44.572Z,28.33
2017-12-11T14:53:13.562Z,23.83
2017-12-11T14:55:42.567Z,27.63
2017-12-11T14:58:11.598Z,25.30
2017-12-11T15:00:41.434Z,24.30
2017-12-11T15:03:10.442Z,24.13
2017-12-11T15:05:40.216Z,25.03
2017-12-11T15:08:09.207Z,26.10
2017-12-11T15:10:38.246Z,26.90
2017-12-11T15:13:08.008Z,24.80
2017-12-11T15:15:37.895Z,23.03
2017-12-11T15:18:06.927Z,24.63
2017-12-11T15:20:36.671Z,26.27
2017-12-11T15:23:06.477Z,27.10
2017-12-11T15:25:36.363Z,28.43
2017-12-11T15:28:05.891Z,25.27
2017-12-11T15:30:35.674Z,29.77
2017-12-11T15:33:05.038Z,27.80
2017-12-11T15:35:34.034Z,27.13
2017-12-11T15:38:03.001Z,22.10
2017-12-11T15:40:32.399Z,30.43
2017-12-11T15:43:01.383Z,26.33
2017-12-11T15:45:31.143Z,23.00
2017-12-11T15:48:00.139Z,25.63
2017-12-11T15:50:29.141Z,28.07
2017-12-11T15:52:58.916Z,23.63
2017-12-11T15:55:27.971Z,27.63
2017-12-11T15:57:57.728Z,28.47
2017-12-11T16:00:27.153Z,25.80
2017-12-11T16:02:56.918Z,24.70
2017-12-11T16:05:26.681Z,23.90
2017-12-11T16:07:56.479Z,25.87
2017-12-11T16:10:25.851Z,23.03
2017-12-11T16:12:54.881Z,23.07
2017-12-11T16:15:23.953Z,31.23
2017-12-11T16:17:53.678Z,23.37
2017-12-11T16:20:22.690Z,25.70
2017-12-11T16:22:51.796Z,25.83
2017-12-11T16:25:21.564Z,20.40
2017-12-11T16:27:50.585Z,23.63
2017-12-11T16:30:19.578Z,28.00
2017-12-11T16:32:48.564Z,25.57
2017-12-11T16:35:18.000Z,23.47
2017-12-11T16:37:47.773Z,23.60
2017-12-11T16:40:16.806Z,28.33
2017-12-11T16:42:46.637Z,35.73
2017-12-11T16:45:15.614Z,32.47
2017-12-11T16:47:45.426Z,25.93
2017-12-11T16:50:15.297Z,31.80
2017-12-11T16:52:45.126Z,25.60
2017-12-11T16:55:14.154Z,29.17
2017-12-11T16:57:43.336Z,26.50
2017-12-11T17:00:12.341Z,28.90
2017-12-11T17:02:41.737Z,25.47
2017-12-11T17:05:11.542Z,26.47
2017-12-11T17:07:40.965Z,32.13
2017-12-11T17:10:10.362Z,26.67
2017-12-11T17:12:40.120Z,28.80
2017-12-11T17:15:09.523Z,28.30
2017-12-11T17:17:38.547Z,25.80
2017-12-11T17:20:07.593Z,26.33
2017-12-11T17:22:36.556Z,24.70
2017-12-11T17:25:05.576Z,25.20
2017-12-11T17:27:34.553Z,28.03
2017-12-11T17:30:03.581Z,29.17
2017-12-11T17:32:32.794Z,29.97
2017-12-11T17:35:01.796Z,24.70
2017-12-11T17:37:31.188Z,25.53
2017-12-11T17:40:00.989Z,25.70
2017-12-11T17:42:30.773Z,34.57
2017-12-11T17:44:59.817Z,22.60
2017-12-11T17:47:29.642Z,25.50
2017-12-11T17:49:59.425Z,24.00
2017-12-11T17:52:28.491Z,28.93
2017-12-11T17:54:58.296Z,28.13
2017-12-11T17:57:27.284Z,22.27
2017-12-11T17:59:56.685Z,25.20
2017-12-11T18:02:25.712Z,27.43
2017-12-11T18:04:54.708Z,25.57
2017-12-11T18:07:23.745Z,24.43
2017-12-11T18:09:52.776Z,25.87
2017-12-11T18:12:22.419Z,29.50
2017-12-11T18:14:52.275Z,29.23
2017-12-11T18:17:21.681Z,30.30
2017-12-11T18:19:50.713Z,26.53
2017-12-11T18:22:19.713Z,25.47
2017-12-11T18:24:48.745Z,24.93
2017-12-11T18:27:17.783Z,21.30
2017-12-11T18:29:47.568Z,26.93
2017-12-11T18:32:16.631Z,27.33
2017-12-11T18:34:46.378Z,24.10
2017-12-11T18:37:15.534Z,26.20
2017-12-11T18:39:45.291Z,29.00
2017-12-11T18:42:14.270Z,26.67
2017-12-11T18:44:44.050Z,27.27
2017-12-11T18:47:13.804Z,31.97
2017-12-11T18:49:43.614Z,23.37
2017-12-11T18:52:12.596Z,23.50
2017-12-11T18:54:43.429Z,24.60
2017-12-11T18:57:12.472Z,26.80
2017-12-11T18:59:41.883Z,28.10
2017-12-11T19:02:12.696Z,27.07
2017-12-11T19:04:42.465Z,26.03
2017-12-11T19:07:11.905Z,27.63
2017-12-11T19:09:40.886Z,23.97
2017-12-11T19:12:10.696Z,22.43
2017-12-11T19:14:40.131Z,21.30
2017-12-11T19:17:10.405Z,21.63
2017-12-11T19:19:39.458Z,20.70
2017-12-11T19:22:08.498Z,21.27
2017-12-11T19:24:37.961Z,23.13
2017-12-11T19:27:07.786Z,25.83
2017-12-11T19:29:37.822Z,25.20
2017-12-11T19:32:07.627Z,21.77
2017-12-11T19:34:37.444Z,19.43
2017-12-11T19:37:06.499Z,21.23
2017-12-11T19:39:37.241Z,18.33
2017-12-11T19:42:06.666Z,20.73
2017-12-11T19:44:35.709Z,20.47
2017-12-11T19:47:05.530Z,23.60
2017-12-11T19:49:34.551Z,23.57
2017-12-11T19:52:05.028Z,25.87
2017-12-11T19:54:34.867Z,20.90
2017-12-11T19:57:03.905Z,21.10
2017-12-11T19:59:33.040Z,19.07
2017-12-11T20:02:02.085Z,19.93
2017-12-11T20:04:32.069Z,19.23
2017-12-11T20:07:01.124Z,25.00
2017-12-11T20:09:30.174Z,20.73
2017-12-11T20:11:59.635Z,19.30
2017-12-11T20:14:29.120Z,23.40
2017-12-11T20:16:58.599Z,22.70
2017-12-11T20:19:28.080Z,20.00
2017-12-11T20:21:57.706Z,18.23
2017-12-11T20:24:26.723Z,21.50
2017-12-11T20:26:55.748Z,17.80
2017-12-11T20:29:24.802Z,19.93
2017-12-11T20:31:53.842Z,17.83
2017-12-11T20:34:23.329Z,21.17
2017-12-11T20:36:53.730Z,19.43
2017-12-11T20:39:22.766Z,17.80
2017-12-11T20:41:52.606Z,15.23
2017-12-11T20:44:22.125Z,19.10
2017-12-11T20:46:52.420Z,18.10
2017-12-11T20:49:21.613Z,17.63
2017-12-11T20:51:51.419Z,15.40
2017-12-11T20:54:20.927Z,17.10
2017-12-11T20:56:50.364Z,17.97
2017-12-11T20:59:19.423Z,17.47
2017-12-11T21:01:48.507Z,17.00
2017-12-11T21:04:18.354Z,16.97
2017-12-11T21:06:47.431Z,17.63
2017-12-11T21:09:16.838Z,18.00
2017-12-11T21:11:46.697Z,13.63
2017-12-11T21:14:15.762Z,22.33
2017-12-11T21:16:45.619Z,16.80
2017-12-11T21:19:15.386Z,18.20
2017-12-11T21:21:45.377Z,16.47
2017-12-11T21:24:15.210Z,13.27
2017-12-11T21:26:45.026Z,15.53
2017-12-11T21:29:14.087Z,15.83
2017-12-11T21:31:43.095Z,18.63
2017-12-11T21:34:12.599Z,13.83
2017-12-11T21:36:42.053Z,14.03
2017-12-11T21:39:11.385Z,14.80
2017-12-11T21:41:40.373Z,14.10
2017-12-11T21:44:09.422Z,14.33
2017-12-11T21:46:38.382Z,14.80
2017-12-11T21:49:07.788Z,14.90
2017-12-11T21:51:37.619Z,14.47
2017-12-11T21:54:06.626Z,12.50
2017-12-11T21:56:36.082Z,17.10
2017-12-11T21:59:05.183Z,15.00
2017-12-11T22:01:34.582Z,11.50
2017-12-11T22:04:03.538Z,15.07
2017-12-11T22:06:32.547Z,12.50
2017-12-11T22:09:01.547Z,16.13
2017-12-11T22:11:30.505Z,12.33
2017-12-11T22:14:00.271Z,11.20
2017-12-11T22:16:30.140Z,12.33
2017-12-11T22:18:59.144Z,14.40
2017-12-11T22:21:28.138Z,13.33
2017-12-11T22:23:57.343Z,17.67
2017-12-11T22:26:26.305Z,12.03
2017-12-11T22:28:56.733Z,10.60
2017-12-11T22:31:25.736Z,14.53
2017-12-11T22:33:55.514Z,13.70
2017-12-11T22:36:24.489Z,15.60
2017-12-11T22:38:53.464Z,18.83
2017-12-11T22:41:23.213Z,14.60
2017-12-11T22:43:52.651Z,14.23
2017-12-11T22:46:21.717Z,14.53
2017-12-11T22:48:50.679Z,13.43
2017-12-11T22:51:20.212Z,13.13
2017-12-11T22:53:49.169Z,13.00
2017-12-11T22:56:18.527Z,12.67
2017-12-11T22:58:47.915Z,14.33
2017-12-11T23:01:17.269Z,11.17
2017-12-11T23:03:46.633Z,13.67
2017-12-11T23:06:15.591Z,15.30
2017-12-11T23:08:44.604Z,13.37
2017-12-11T23:11:14.356Z,13.50
2017-12-11T23:13:43.335Z,13.80
2017-12-11T23:16:13.094Z,11.07
2017-12-11T23:18:42.503Z,10.87
2017-12-11T23:21:12.800Z,12.63
2017-12-11T23:23:42.559Z,10.90
2017-12-11T23:26:11.925Z,11.97
2017-12-11T23:28:40.945Z,12.57
2017-12-11T23:31:10.673Z,13.27
2017-12-11T23:33:40.520Z,15.70
2017-12-11T23:36:10.283Z,14.03
2017-12-11T23:38:39.235Z,14.00
2017-12-11T23:41:09.027Z,14.83
2017-12-11T23:43:37.995Z,12.50
2017-12-11T23:46:07.760Z,13.83
2017-12-11T23:48:37.171Z,12.57
2017-12-11T23:51:06.147Z,12.03
2017-12-11T23:53:35.522Z,13.30
2017-12-11T23:56:05.297Z,13.00
2017-12-11T23:58:34.259Z,14.53
